Time;durP1;ratioP1;P1;durP2;ratioP2;P2;SDS_P1;SDS_P2;PMS_P1;PMS_P2;Temp;Humidity;BMP_temperature;BMP_pressure;BME280_temperature;BME280_humidity;BME280_pressure;Samples;Min_cycle;Max_cycle;Signal;HPM_P1;HPM_P2
2021/01/07 00:02:17;;;;;;;14.30;10.48;;;;;;;1.90;83.52;95278.69;4976710;28;20027;-87
2021/01/07 00:04:43;;;;;;;14.63;10.45;;;;;;;1.77;83.51;95256.53;4976648;28;20023;-87
2021/01/07 00:07:08;;;;;;;11.20;9.27;;;;;;;2.06;84.69;95310.75;4976661;28;20030;-87
2021/01/07 00:09:34;;;;;;;11.05;9.55;;;;;;;1.96;84.10;95286.97;4976867;28;20443;-87
2021/01/07 00:11:59;;;;;;;13.18;10.38;;;;;;;1.84;83.93;95272.38;4979724;28;20034;-87
2021/01/07 00:14:25;;;;;;;12.93;9.88;;;;;;;1.97;85.09;95280.41;4996046;28;20137;-87
2021/01/07 00:16:50;;;;;;;12.80;10.30;;;;;;;1.87;84.09;95274.22;4995975;28;20042;-87
2021/01/07 00:19:16;;;;;;;11.52;9.80;;;;;;;1.73;85.05;95243.22;4996001;28;20026;-87
2021/01/07 00:21:41;;;;;;;15.55;10.13;;;;;;;1.93;84.41;95274.44;4996865;28;20068;-86
2021/01/07 00:24:08;;;;;;;15.13;9.93;;;;;;;2.04;85.08;95288.28;4996930;28;20101;-87
2021/01/07 00:26:33;;;;;;;12.93;10.20;;;;;;;1.64;84.39;95220.94;4983306;28;20438;-87
2021/01/07 00:29:00;;;;;;;15.02;10.05;;;;;;;2.23;84.54;95335.53;4980028;28;20054;-87
2021/01/07 00:31:26;;;;;;;13.75;10.48;;;;;;;1.77;84.89;95265.31;4979964;28;20422;-86
2021/01/07 00:33:51;;;;;;;15.95;10.98;;;;;;;1.76;84.63;95269.16;4987879;28;20026;-86
2021/01/07 00:36:19;;;;;;;13.60;10.32;;;;;;;1.80;85.84;95275.16;5000024;28;20030;-86
2021/01/07 00:38:46;;;;;;;15.80;11.18;;;;;;;1.82;84.59;95286.19;4999236;28;20081;-86
2021/01/07 00:41:19;;;;;;;13.13;9.85;;;;;;;2.20;85.32;95332.97;5000210;28;20121;-86
2021/01/07 00:43:48;;;;;;;17.05;11.93;;;;;;;2.08;85.03;95307.69;4999366;28;20065;-87
2021/01/07 00:46:15;;;;;;;19.95;12.85;;;;;;;1.82;85.82;95280.09;4999104;28;20034;-87
2021/01/07 00:48:40;;;;;;;19.95;14.30;;;;;;;1.73;85.13;95270.00;4999129;28;20120;-87
2021/01/07 00:51:07;;;;;;;21.63;14.88;;;;;;;1.27;85.53;95207.78;5000797;28;20130;-87
2021/01/07 00:53:33;;;;;;;22.95;15.55;;;;;;;1.74;86.35;95271.50;4999101;28;20030;-87
2021/01/07 00:55:58;;;;;;;21.73;14.82;;;;;;;1.65;85.79;95274.06;4993277;28;20069;-87
2021/01/07 00:58:24;;;;;;;26.45;18.60;;;;;;;1.98;86.15;95296.09;4980698;28;20110;-87
2021/01/07 01:00:50;;;;;;;24.52;16.77;;;;;;;1.93;85.32;95283.22;4980645;28;20031;-86
2021/01/07 01:03:15;;;;;;;23.98;17.25;;;;;;;1.37;85.67;95232.00;4979488;28;20037;-87
2021/01/07 01:05:40;;;;;;;23.60;15.25;;;;;;;1.81;85.93;95281.25;4979462;28;20022;-87
2021/01/07 01:08:07;;;;;;;21.77;15.55;;;;;;;1.91;85.70;95268.75;4979354;28;20034;-87
2021/01/07 01:10:32;;;;;;;20.92;15.27;;;;;;;2.33;86.14;95323.75;4979271;28;20134;-86
2021/01/07 01:12:58;;;;;;;23.98;17.30;;;;;;;1.75;84.75;95269.56;4978835;28;20121;-87
2021/01/07 01:15:24;;;;;;;25.25;15.90;;;;;;;1.83;84.96;95287.69;4997532;28;20418;-87
2021/01/07 01:17:49;;;;;;;21.98;15.88;;;;;;;2.14;85.80;95343.47;4999622;28;20030;-87
2021/01/07 01:20:15;;;;;;;20.15;15.55;;;;;;;1.63;86.11;95263.00;4998546;28;20041;-86
2021/01/07 01:22:41;;;;;;;21.75;15.45;;;;;;;2.04;85.51;95328.44;4997878;28;20488;-87
2021/01/07 01:25:08;;;;;;;21.52;16.25;;;;;;;1.88;86.50;95305.16;4985555;28;20086;-86
2021/01/07 01:27:44;;;;;;;18.55;14.50;;;;;;;2.09;85.69;95339.38;4978770;28;20035;-87
2021/01/07 01:30:12;;;;;;;20.00;14.55;;;;;;;2.09;86.30;95328.66;4979923;28;20062;-87
2021/01/07 01:32:38;;;;;;;22.52;15.93;;;;;;;2.10;86.00;95335.53;4978996;28;20354;-87
2021/01/07 01:35:07;;;;;;;22.23;15.43;;;;;;;2.05;85.29;95336.06;4979583;28;20089;-87
2021/01/07 01:37:37;;;;;;;21.48;15.68;;;;;;;1.78;85.89;95296.25;4979414;28;20027;-87
2021/01/07 01:40:07;;;;;;;19.15;13.90;;;;;;;1.57;85.82;95270.81;4986369;28;20078;-87
2021/01/07 01:42:33;;;;;;;21.63;14.88;;;;;;;1.22;85.95;95231.63;4997977;28;20080;-87
2021/01/07 01:44:58;;;;;;;18.60;13.18;;;;;;;1.66;86.87;95285.53;4987621;28;20042;-86
2021/01/07 01:47:24;;;;;;;16.33;12.32;;;;;;;1.52;85.93;95263.31;4993318;28;20042;-87
2021/01/07 01:49:51;;;;;;;20.08;12.25;;;;;;;1.73;86.18;95296.78;4997003;28;20117;-86
2021/01/07 01:52:18;;;;;;;15.82;11.88;;;;;;;1.47;86.49;95257.72;4982677;28;20033;-87
2021/01/07 01:54:47;;;;;;;16.65;11.60;;;;;;;1.95;85.72;95329.06;4997831;28;20437;-86
2021/01/07 01:57:13;;;;;;;17.05;13.13;;;;;;;1.85;86.04;95306.00;4978313;28;20113;-87
2021/01/07 01:59:39;;;;;;;12.88;11.00;;;;;;;1.76;85.23;95276.44;4978202;28;20046;-86
2021/01/07 02:02:17;;;;;;;12.48;10.30;;;;;;;1.64;85.17;95253.81;4978361;28;20030;-86
2021/01/07 02:04:46;;;;;;;14.48;10.85;;;;;;;1.72;85.06;95257.78;4993746;28;20058;-87
2021/01/07 02:07:14;;;;;;;15.02;11.45;;;;;;;2.12;85.60;95310.22;4997552;28;20022;-87
2021/01/07 02:09:44;;;;;;;15.57;11.48;;;;;;;1.61;85.85;95246.63;4997324;28;20058;-87
2021/01/07 02:12:10;;;;;;;15.30;10.88;;;;;;;2.09;85.19;95311.84;4997288;28;20113;-87
2021/01/07 02:14:54;;;;;;;10.90;8.70;;;;;;;1.94;83.58;95294.69;4996885;28;20125;-87
2021/01/07 02:17:19;;;;;;;13.93;9.80;;;;;;;1.52;84.33;95233.88;4998770;28;20411;-87
2021/01/07 02:19:45;;;;;;;12.93;9.30;;;;;;;1.55;84.54;95233.03;4998419;28;20041;-87
2021/01/07 02:22:12;;;;;;;12.82;9.50;;;;;;;2.03;85.27;95298.22;4996999;28;20053;-87
2021/01/07 02:24:38;;;;;;;10.93;9.05;;;;;;;2.15;84.45;95310.13;4998361;28;20534;-87
2021/01/07 02:27:08;;;;;;;16.05;10.45;;;;;;;1.80;85.00;95240.34;4998296;28;20039;-87
2021/01/07 02:29:38;;;;;;;14.07;10.68;;;;;;;2.30;84.60;95315.84;4997555;28;20032;-87
2021/01/07 02:32:06;;;;;;;11.23;8.80;;;;;;;1.80;82.00;95240.34;4985106;28;20405;-87
2021/01/07 02:34:32;;;;;;;15.65;10.75;;;;;;;1.74;84.22;95252.00;4977716;28;20027;-87
2021/01/07 02:36:58;;;;;;;13.43;10.82;;;;;;;1.37;84.70;95210.59;4993780;28;20041;-87
2021/01/07 02:39:24;;;;;;;13.50;9.93;;;;;;;1.76;85.02;95247.75;4994046;28;20019;-87
2021/01/07 02:41:54;;;;;;;17.95;12.90;;;;;;;1.82;84.20;95243.34;4977425;28;20078;-87
2021/01/07 02:44:22;;;;;;;13.13;9.50;;;;;;;2.19;82.71;95305.44;4977484;28;20331;-86
2021/01/07 02:46:49;;;;;;;12.95;9.85;;;;;;;1.96;83.68;95273.56;4991962;28;20038;-86
2021/01/07 02:49:14;;;;;;;10.38;8.90;;;;;;;1.81;81.70;95257.16;4996439;28;20026;-87
2021/01/07 02:51:40;;;;;;;10.63;8.48;;;;;;;1.70;81.13;95241.38;4995907;28;20101;-87
2021/01/07 02:54:06;;;;;;;10.90;8.85;;;;;;;1.57;81.17;95219.97;4997005;28;20038;-87
2021/01/07 02:56:32;;;;;;;9.38;8.23;;;;;;;1.68;78.77;95251.78;4996787;28;20354;-87
2021/01/07 02:58:57;;;;;;;10.23;8.55;;;;;;;1.48;79.59;95209.13;4996999;28;20426;-87
2021/01/07 03:01:23;;;;;;;10.70;8.75;;;;;;;1.83;78.75;95265.53;4996897;28;20118;-86
2021/01/07 03:03:48;;;;;;;10.93;8.68;;;;;;;1.77;79.65;95254.59;4996814;28;20022;-87
2021/01/07 03:06:14;;;;;;;11.57;9.25;;;;;;;1.45;78.88;95222.63;4996688;28;20026;-87
2021/01/07 03:08:39;;;;;;;11.07;9.13;;;;;;;1.88;80.20;95256.22;4996835;28;20037;-87
2021/01/07 03:11:04;;;;;;;10.82;8.70;;;;;;;1.91;80.04;95256.09;4996500;28;20145;-87
2021/01/07 03:13:30;;;;;;;13.45;9.07;;;;;;;1.65;78.46;95239.25;4985880;28;20292;-86
2021/01/07 03:15:55;;;;;;;9.43;8.23;;;;;;;1.81;77.09;95254.47;4977270;28;20481;-87
2021/01/07 03:18:21;;;;;;;9.50;8.50;;;;;;;1.78;77.35;95276.75;4993874;28;20026;-87
2021/01/07 03:20:46;;;;;;;11.18;9.27;;;;;;;1.69;77.83;95250.59;4985208;28;20035;-87
2021/01/07 03:23:12;;;;;;;11.35;8.77;;;;;;;1.53;77.46;95221.22;4976941;28;20050;-87
2021/01/07 03:25:37;;;;;;;9.02;8.13;;;;;;;1.80;76.98;95258.31;4976891;28;20033;-87
2021/01/07 03:28:03;;;;;;;12.90;9.00;;;;;;;1.62;76.86;95248.13;4991244;28;20034;-87
2021/01/07 03:30:28;;;;;;;8.43;7.47;;;;;;;1.47;76.29;95237.06;4996566;28;20026;-86
2021/01/07 03:32:53;;;;;;;9.95;8.18;;;;;;;1.49;77.03;95231.28;4996396;28;20468;-87
2021/01/07 03:35:19;;;;;;;8.82;7.93;;;;;;;1.61;75.74;95252.00;4996258;28;20420;-87
2021/01/07 03:37:44;;;;;;;9.13;7.00;;;;;;;1.69;76.43;95268.59;4987794;28;20022;-87
2021/01/07 03:40:10;;;;;;;8.90;7.13;;;;;;;1.35;76.44;95208.34;4982894;28;20034;-87
2021/01/07 03:42:35;;;;;;;8.93;7.35;;;;;;;1.45;76.92;95225.28;4984556;28;20120;-86
2021/01/07 03:45:01;;;;;;;9.52;7.55;;;;;;;1.53;74.98;95243.38;4996017;28;20118;-86
2021/01/07 03:47:26;;;;;;;9.52;7.53;;;;;;;1.76;75.99;95281.81;4997141;28;20027;-86
2021/01/07 03:49:52;;;;;;;8.57;7.10;;;;;;;1.38;76.32;95236.91;4996148;28;20034;-87
2021/01/07 03:52:17;;;;;;;8.77;7.53;;;;;;;1.49;74.43;95231.28;4996194;28;20029;-87
2021/01/07 03:54:42;;;;;;;8.07;7.05;;;;;;;1.58;76.03;95250.91;4997386;28;20053;-87
2021/01/07 03:57:08;;;;;;;9.38;8.15;;;;;;;1.69;77.65;95257.88;4996099;28;20068;-87
2021/01/07 03:59:33;;;;;;;9.00;7.72;;;;;;;1.36;77.20;95211.78;4986951;28;20018;-87
2021/01/07 04:01:59;;;;;;;8.90;7.38;;;;;;;1.58;75.09;95250.16;4978730;28;20070;-87
2021/01/07 04:04:25;;;;;;;8.68;7.38;;;;;;;1.45;76.98;95236.00;4981521;28;20093;-87
2021/01/07 04:06:50;;;;;;;8.32;6.82;;;;;;;1.58;75.47;95255.50;4981567;28;20034;-87
2021/01/07 04:09:15;;;;;;;7.65;6.20;;;;;;;1.68;73.89;95259.06;4980373;28;20035;-87
2021/01/07 04:11:41;;;;;;;8.25;6.60;;;;;;;1.80;73.85;95279.75;4999029;28;20318;-87
2021/01/07 04:14:06;;;;;;;7.05;6.32;;;;;;;1.44;74.48;95239.81;5001078;28;20059;-87
2021/01/07 04:16:32;;;;;;;7.50;5.90;;;;;;;1.64;73.21;95274.47;4999688;28;20030;-87
2021/01/07 04:18:57;;;;;;;6.90;6.00;;;;;;;1.62;73.50;95268.78;4999979;28;20325;-88
2021/01/07 04:21:24;;;;;;;7.35;5.78;;;;;;;1.81;72.79;95276.66;4992541;28;20178;-87
2021/01/07 04:23:49;;;;;;;6.70;5.88;;;;;;;1.83;72.34;95287.69;4980267;28;20023;-87
2021/01/07 04:26:16;;;;;;;6.80;6.10;;;;;;;2.06;73.20;95301.97;4999519;28;20031;-87
2021/01/07 04:28:42;;;;;;;7.53;5.38;;;;;;;1.97;73.92;95305.31;4998290;28;20101;-87
2021/01/07 04:31:08;;;;;;;6.47;5.30;;;;;;;1.82;71.88;95310.31;4980008;28;20031;-87
2021/01/07 04:33:33;;;;;;;7.65;5.57;;;;;;;1.45;71.61;95246.69;4980962;28;20019;-87
2021/01/07 04:35:59;;;;;;;5.47;4.80;;;;;;;0.82;70.17;95165.06;4979713;28;20035;-87
2021/01/07 04:38:24;;;;;;;5.28;4.65;;;;;;;1.55;70.01;95265.16;4979722;28;20026;-87
2021/01/07 04:40:50;;;;;;;6.20;5.03;;;;;;;1.33;69.67;95234.00;4979514;28;20031;-87
2021/01/07 04:43:15;;;;;;;6.50;5.07;;;;;;;1.47;72.99;95255.78;4979943;28;20033;-87
2021/01/07 04:45:40;;;;;;;7.30;5.60;;;;;;;1.64;73.95;95282.50;4979611;28;20049;-87
2021/01/07 04:48:07;;;;;;;4.78;4.03;;;;;;;1.77;70.50;95302.03;4984271;28;20030;-87
2021/01/07 04:50:33;;;;;;;6.78;5.20;;;;;;;1.39;72.24;95267.88;4999196;28;20033;-87
2021/01/07 04:52:59;;;;;;;6.43;5.00;;;;;;;1.36;72.54;95243.88;4999277;28;20561;-87
2021/01/07 04:55:24;;;;;;;6.45;5.47;;;;;;;1.28;73.17;95252.13;4999983;28;20030;-87
2021/01/07 04:57:51;;;;;;;7.78;6.25;;;;;;;1.56;74.28;95285.38;4998878;28;20018;-86
2021/01/07 05:00:17;;;;;;;6.97;5.88;;;;;;;1.00;74.26;95234.13;4985984;28;20026;-87
2021/01/07 05:02:42;;;;;;;6.22;5.60;;;;;;;1.11;74.42;95250.63;4979527;28;20031;-88
2021/01/07 05:05:08;;;;;;;5.90;4.78;;;;;;;1.18;73.65;95255.81;4988973;28;20136;-87
2021/01/07 05:07:38;;;;;;;7.28;5.43;;;;;;;1.62;73.45;95314.31;4979327;28;20034;-87
2021/01/07 05:10:09;;;;;;;6.82;5.50;;;;;;;1.33;72.57;95277.56;4995844;28;20050;-87
2021/01/07 05:12:36;;;;;;;5.82;5.20;;;;;;;1.35;72.29;95274.50;4997971;28;20081;-87
2021/01/07 05:15:02;;;;;;;6.53;5.05;;;;;;;1.51;72.43;95301.97;4998668;28;20032;-87
2021/01/07 05:17:28;;;;;;;6.07;5.38;;;;;;;1.18;72.78;95274.53;4999427;28;20030;-87
2021/01/07 05:19:54;;;;;;;6.35;5.30;;;;;;;1.42;72.19;95301.06;4992481;28;20358;-87
2021/01/07 05:22:19;;;;;;;6.35;5.07;;;;;;;1.47;71.87;95305.91;4981588;28;20077;-87
2021/01/07 05:24:45;;;;;;;5.30;4.78;;;;;;;1.11;72.41;95247.97;4990207;28;20414;-87
2021/01/07 05:27:12;;;;;;;4.68;4.18;;;;;;;1.72;71.48;95334.69;4998335;28;20026;-87
2021/01/07 05:29:39;;;;;;;4.63;3.50;;;;;;;1.54;69.37;95316.41;4996157;28;20364;-87
2021/01/07 05:32:06;;;;;;;4.78;4.13;;;;;;;1.64;69.29;95314.63;4978825;28;20030;-87
2021/01/07 05:34:32;;;;;;;4.70;4.18;;;;;;;1.66;69.17;95328.34;4987481;28;20041;-87
2021/01/07 05:36:59;;;;;;;4.97;4.47;;;;;;;1.15;70.93;95255.91;4979824;28;20027;-87
2021/01/07 05:39:34;;;;;;;6.22;4.90;;;;;;;1.40;72.10;95284.69;4978565;28;20418;-87
2021/01/07 05:42:03;;;;;;;8.25;4.93;;;;;;;1.46;72.27;95278.38;4978744;28;20026;-86
2021/01/07 05:44:32;;;;;;;5.75;5.03;;;;;;;1.93;71.47;95344.81;4994845;28;20026;-87
2021/01/07 05:46:58;;;;;;;5.05;3.90;;;;;;;1.59;69.98;95302.50;4993236;28;20418;-87
2021/01/07 05:49:37;;;;;;;4.90;4.40;;;;;;;1.64;68.83;95312.69;4998202;28;20080;-87
2021/01/07 05:52:07;;;;;;;5.55;4.32;;;;;;;1.69;70.73;95320.22;4978664;28;20041;-86
2021/01/07 05:54:33;;;;;;;;;;;;;;;1.91;70.62;95357.88;4980700;28;20019;-87
2021/01/07 05:57:04;;;;;;;6.10;5.18;;;;;;;1.86;71.51;95361.06;4998617;28;19916;-87
2021/01/07 05:59:33;;;;;;;;;;;;;;;1.93;71.98;95360.88;4999317;28;20797;-87
2021/01/07 06:02:04;;;;;;;6.07;5.35;;;;;;;1.54;70.68;95305.69;4995884;28;20004;-87
2021/01/07 06:04:33;;;;;;;7.00;6.30;;;;;;;1.71;71.41;95339.28;4979744;28;20027;-87
2021/01/07 06:07:00;;;;;;;7.38;5.85;;;;;;;1.52;72.11;95316.84;4979367;28;20065;-87
2021/01/07 06:09:31;;;;;;;7.22;6.28;;;;;;;1.75;74.32;95355.25;4979162;28;20101;-87
2021/01/07 06:12:00;;;;;;;9.00;6.70;;;;;;;1.52;72.72;95335.56;4978416;28;20037;-86
2021/01/07 06:14:26;;;;;;;7.35;6.10;;;;;;;1.65;71.39;95343.66;4982244;28;20109;-87
2021/01/07 06:16:56;;;;;;;7.10;6.40;;;;;;;1.78;73.15;95354.41;4998018;28;20027;-87
2021/01/07 06:19:41;;;;;;;8.15;6.68;;;;;;;1.82;73.15;95345.09;4998577;28;20057;-86
2021/01/07 06:22:13;;;;;;;5.57;5.07;;;;;;;1.86;71.15;95354.97;4996873;28;20062;-86
2021/01/07 06:24:40;;;;;;;5.18;4.35;;;;;;;1.76;68.91;95368.22;4998113;28;20410;-85
2021/01/07 06:27:32;;;;;;;5.95;4.80;;;;;;;1.84;68.85;95358.81;4997260;28;20035;-85
2021/01/07 06:30:20;;;;;;;6.25;5.47;;;;;;;1.84;70.39;95363.44;4998084;28;20054;-85
2021/01/07 06:32:47;;;;;;;6.82;6.13;;;;;;;1.42;70.94;95328.56;4982042;28;20033;-85
2021/01/07 06:35:17;;;;;;;8.10;6.57;;;;;;;1.69;69.88;95365.72;4998459;28;20037;-86
2021/01/07 06:37:48;;;;;;;6.13;5.25;;;;;;;1.70;69.48;95363.78;4993738;28;20022;-86
2021/01/07 06:40:14;;;;;;;;;;;;;;;1.78;71.10;95365.88;4985949;28;20066;-86
2021/01/07 06:42:48;;;;;;;6.72;5.28;;;;;;;1.49;68.18;95332.97;4994933;28;20217;-87
2021/01/07 06:45:14;;;;;;;6.70;5.88;;;;;;;1.76;69.20;95376.25;4997908;28;20034;-86
2021/01/07 06:47:41;;;;;;;6.55;4.75;;;;;;;1.20;68.04;95308.88;4995075;28;20109;-85
2021/01/07 06:50:07;;;;;;;6.45;5.40;;;;;;;1.37;69.09;95342.47;4982388;28;20030;-86
2021/01/07 06:52:41;;;;;;;6.35;5.50;;;;;;;0.92;69.60;95286.28;4980077;28;20080;-86
2021/01/07 06:55:14;;;;;;;6.00;5.40;;;;;;;1.56;68.23;95386.34;4994372;28;20062;-86
2021/01/07 06:57:45;;;;;;;6.43;5.63;;;;;;;1.24;70.85;95334.38;4996657;28;20287;-86
2021/01/07 07:00:14;;;;;;;9.02;6.95;;;;;;;1.29;70.93;95362.56;4988383;28;20106;-86
2021/01/07 07:02:55;;;;;;;10.30;8.18;;;;;;;1.29;73.40;95370.59;4997597;28;20031;-86
2021/01/07 07:05:23;;;;;;;11.27;8.80;;;;;;;1.24;72.96;95371.09;4980058;28;20027;-86
2021/01/07 07:08:07;;;;;;;12.48;8.63;;;;;;;1.63;74.75;95412.94;4996288;28;20418;-86
2021/01/07 07:10:32;;;;;;;9.35;6.85;;;;;;;1.64;70.40;95417.09;4986094;28;20031;-86
2021/01/07 07:13:00;;;;;;;9.52;7.00;;;;;;;1.46;71.97;95396.16;4980417;28;20037;-86
2021/01/07 07:15:27;;;;;;;8.07;7.22;;;;;;;1.63;69.58;95426.31;4983867;28;20053;-87
2021/01/07 07:17:56;;;;;;;6.85;5.90;;;;;;;1.41;71.00;95388.63;4987433;28;20134;-86
2021/01/07 07:20:26;;;;;;;7.57;5.70;;;;;;;1.51;68.91;95418.97;4982472;28;20423;-86
2021/01/07 07:22:52;;;;;;;;;;;;;;;1.71;69.55;95432.25;4984690;28;20122;-86
2021/01/07 07:25:23;;;;;;;7.85;6.15;;;;;;;1.22;72.63;95352.00;4980821;28;19941;-88
2021/01/07 07:27:50;;;;;;;8.13;5.57;;;;;;;1.78;71.67;95438.16;4983743;28;20084;-87
2021/01/07 07:30:30;;;;;;;7.57;6.30;;;;;;;1.79;72.16;95455.00;4996389;28;20038;-87
2021/01/07 07:32:57;;;;;;;6.20;5.05;;;;;;;1.50;70.04;95426.25;4989360;28;20034;-86
2021/01/07 07:35:28;;;;;;;6.65;5.07;;;;;;;1.48;71.10;95419.81;5009129;28;20042;-87
2021/01/07 07:37:54;;;;;;;7.55;5.88;;;;;;;1.78;73.80;95467.63;4987414;28;20315;-84
2021/01/07 07:40:34;;;;;;;7.78;6.18;;;;;;;1.73;72.46;95462.78;4981905;28;20026;-87
2021/01/07 07:42:59;;;;;;;7.63;6.28;;;;;;;1.40;72.18;95413.88;4982503;28;20027;-86
2021/01/07 07:45:29;;;;;;;9.38;6.57;;;;;;;1.71;73.17;95445.66;4981741;28;20031;-86
2021/01/07 07:47:55;;;;;;;7.65;6.35;;;;;;;1.52;73.63;95420.47;4981570;28;20113;-87
2021/01/07 07:50:28;;;;;;;7.72;6.55;;;;;;;1.57;73.04;95434.09;4998727;28;20030;-86
2021/01/07 07:53:07;;;;;;;8.30;6.80;;;;;;;1.63;74.04;95425.56;4980784;28;20325;-87
2021/01/07 07:55:36;;;;;;;8.18;6.43;;;;;;;1.83;72.92;95442.25;4980924;28;20034;-88
2021/01/07 07:58:11;;;;;;;8.00;6.00;;;;;;;1.84;72.16;95441.84;4981742;28;20018;-89
2021/01/07 08:00:38;;;;;;;7.88;6.30;;;;;;;1.96;72.21;95469.09;4994256;28;20034;-87
2021/01/07 08:03:04;;;;;;;6.05;4.90;;;;;;;1.96;71.15;95475.19;4981579;28;20023;-86
2021/01/07 08:05:31;;;;;;;6.55;5.20;;;;;;;1.97;71.40;95475.94;4980525;28;20419;-86
2021/01/07 08:07:58;;;;;;;6.50;4.75;;;;;;;1.97;71.40;95479.41;4981205;28;20026;-83
2021/01/07 08:10:25;;;;;;;6.07;4.93;;;;;;;1.89;72.63;95459.31;5000047;28;20322;-84
2021/01/07 08:12:51;;;;;;;6.40;5.45;;;;;;;2.06;74.07;95484.88;4999495;28;20030;-86
2021/01/07 08:15:30;;;;;;;6.85;5.28;;;;;;;2.02;72.03;95478.88;4987336;28;20081;-86
2021/01/07 08:18:13;;;;;;;5.22;4.47;;;;;;;1.78;70.53;95456.91;4998304;28;20026;-85
2021/01/07 08:20:38;;;;;;;5.32;4.28;;;;;;;1.34;71.30;95382.72;5000666;28;20026;-88
2021/01/07 08:23:09;;;;;;;15.80;10.40;;;;;;;1.99;68.75;95487.00;4999493;28;20390;-87
2021/01/07 08:25:34;;;;;;;6.45;5.05;;;;;;;1.99;68.75;95487.00;4999864;28;20035;-87
2021/01/07 08:28:20;;;;;;;4.78;3.63;;;;;;;1.99;68.75;95487.00;4999766;28;20326;-87
2021/01/07 08:30:50;;;;;;;4.45;2.92;;;;;;;1.99;68.75;95487.00;4982541;28;20038;-88
2021/01/07 08:33:19;;;;;;;3.90;3.25;;;;;;;1.51;66.46;95417.06;4984747;28;20093;-85
2021/01/07 08:35:45;;;;;;;3.83;3.22;;;;;;;1.94;66.94;95488.28;4999099;28;20105;-85
2021/01/07 08:38:23;;;;;;;4.30;3.30;;;;;;;1.94;66.94;95488.28;5000212;28;20138;-85
2021/01/07 08:40:48;;;;;;;4.55;3.50;;;;;;;1.69;68.95;95450.66;5000282;28;20027;-87
2021/01/07 08:43:14;;;;;;;4.00;3.22;;;;;;;1.90;69.32;95492.22;4992462;28;20077;-85
2021/01/07 08:45:39;;;;;;;5.60;4.15;;;;;;;1.90;69.32;95492.22;4998160;28;20023;-88
2021/01/07 08:48:08;;;;;;;4.55;4.15;;;;;;;1.58;68.82;95426.81;4996256;28;20038;-85
2021/01/07 08:50:34;;;;;;;4.78;3.53;;;;;;;1.58;68.82;95426.81;4998737;28;20064;-83
2021/01/07 08:53:06;;;;;;;4.72;3.80;;;;;;;1.89;67.22;95493.38;4993271;28;20101;-85
2021/01/07 08:55:48;;;;;;;5.38;4.10;;;;;;;1.94;71.44;95484.84;4992503;28;20053;-85
2021/01/07 08:58:39;;;;;;;3.97;3.47;;;;;;;2.04;68.41;95510.63;4987684;28;20023;-86
2021/01/07 09:01:05;;;;;;;4.78;3.25;;;;;;;2.04;68.41;95510.63;4977046;28;20082;-86
2021/01/07 09:03:40;;;;;;;4.70;3.55;;;;;;;2.04;68.41;95510.63;4979327;28;20027;-85
2021/01/07 09:06:07;;;;;;;4.82;3.90;;;;;;;1.92;69.18;95476.47;4980231;28;20035;-84
2021/01/07 09:08:32;;;;;;;6.82;4.30;;;;;;;2.39;78.18;95506.22;4982236;28;20033;-83
2021/01/07 09:11:08;;;;;;;5.32;4.07;;;;;;;2.40;67.03;95505.09;4997713;28;20125;-84
2021/01/07 09:13:34;;;;;;;4.55;4.03;;;;;;;2.06;70.26;95476.84;4998578;28;20105;-84
2021/01/07 09:16:14;;;;;;;5.05;3.72;;;;;;;2.06;70.26;95476.84;4990610;28;20138;-87
2021/01/07 09:18:40;;;;;;;5.10;3.60;;;;;;;2.06;70.26;95476.84;4979257;28;20070;-83
2021/01/07 09:21:15;;;;;;;4.25;3.55;;;;;;;2.11;68.52;95502.38;4993103;28;20173;-86
2021/01/07 09:23:41;;;;;;;5.05;3.70;;;;;;;2.11;68.52;95502.38;4960746;28;20387;-84
2021/01/07 09:26:06;;;;;;;3.60;3.30;;;;;;;2.11;68.52;95502.38;4959352;29;20419;-83
2021/01/07 09:28:36;;;;;;;4.55;3.35;;;;;;;-145.61;100.00;68426.72;4947410;29;20071;-86
2021/01/07 09:31:01;;;;;;;4.90;3.72;;;;;;;1.94;65.35;95493.63;4940596;29;20036;-88
2021/01/07 09:33:27;;;;;;;4.38;3.80;;;;;;;1.94;65.35;95493.63;4946252;29;20105;-83
2021/01/07 09:35:52;;;;;;;3.72;3.33;;;;;;;1.94;65.35;95493.63;4954940;29;20330;-86
2021/01/07 09:38:18;;;;;;;4.88;3.95;;;;;;;1.94;65.35;95493.63;4959187;28;20079;-87
2021/01/07 09:40:43;;;;;;;3.20;2.63;;;;;;;-145.61;100.00;68426.72;4959018;29;20027;-85
2021/01/07 09:43:09;;;;;;;3.70;2.80;;;;;;;-145.61;100.00;68426.72;4958758;28;20024;-85
2021/01/07 09:45:34;;;;;;;2.95;2.65;;;;;;;-145.61;100.00;68426.72;4960403;28;20031;-89
2021/01/07 09:48:00;;;;;;;3.53;2.60;;;;;;;-145.61;100.00;68426.72;4959264;29;20118;-89
2021/01/07 09:50:25;;;;;;;2.88;2.50;;;;;;;-145.61;100.00;68426.72;4959473;28;20089;-85
2021/01/07 09:52:51;;;;;;;3.50;2.50;;;;;;;-145.61;100.00;68426.72;4941550;29;20043;-88
2021/01/07 09:55:16;;;;;;;2.50;2.30;;;;;;;-145.61;100.00;68426.72;4947376;29;20086;-88
2021/01/07 09:57:47;;;;;;;2.92;2.58;;;;;;;-145.61;100.00;68426.72;4953452;29;20356;-86
2021/01/07 10:00:13;;;;;;;3.15;2.58;;;;;;;-145.61;100.00;68426.72;4952240;29;20371;-88
2021/01/07 10:02:38;;;;;;;4.03;3.58;;;;;;;-145.61;100.00;68426.72;4951398;29;20042;-88
2021/01/07 10:05:04;;;;;;;5.25;3.90;;;;;;;-145.61;100.00;68426.72;4945430;29;20036;-87
2021/01/07 10:07:30;;;;;;;3.25;2.67;;;;;;;-145.61;100.00;68426.72;4946513;29;20023;-88
2021/01/07 10:09:55;;;;;;;3.33;2.70;;;;;;;-145.61;100.00;68426.72;4956944;29;20327;-89
2021/01/07 10:12:21;;;;;;;2.85;2.50;;;;;;;-145.61;100.00;68426.72;4956289;29;20105;-88
2021/01/07 10:14:47;;;;;;;4.13;2.65;;;;;;;-145.61;100.00;68426.72;4948455;28;20031;-90
2021/01/07 10:17:12;;;;;;;11.68;4.97;;;;;;;-145.61;100.00;68426.72;4940051;29;20035;-87
2021/01/07 10:19:39;;;;;;;6.32;3.58;;;;;;;-145.61;100.00;68426.72;4941437;29;20031;-86
2021/01/07 10:22:10;;;;;;;8.48;4.43;;;;;;;-145.61;100.00;68426.72;4955927;28;20074;-91
2021/01/07 10:24:40;;;;;;;4.20;3.05;;;;;;;-145.61;100.00;68426.72;4996095;28;20034;-89
2021/01/07 10:27:07;;;;;;;12.82;5.25;;;;;;;-145.61;100.00;68426.72;4996863;28;20038;-89
2021/01/07 10:29:37;;;;;;;8.18;4.05;;;;;;;-145.61;100.00;68426.72;4997571;28;20063;-87
2021/01/07 10:32:09;;;;;;;3.95;2.30;;;;;;;-145.61;100.00;68426.72;4992251;28;20457;-90
2021/01/07 10:34:38;;;;;;;3.97;2.85;;;;;;;-145.61;100.00;68426.72;4996831;28;20057;-90
2021/01/07 10:37:05;;;;;;;3.35;2.80;;;;;;;-145.61;100.00;68426.72;4992650;28;20045;-91
2021/01/07 10:43:39;;;;;;;2.67;2.30;;;;;;;-145.61;100.00;68426.72;4980885;28;20069;-89
2021/01/07 10:46:04;;;;;;;3.38;2.10;;;;;;;-145.61;100.00;68426.72;4985511;28;20417;-91
2021/01/07 10:48:43;;;;;;;2.85;2.30;;;;;;;-145.61;100.00;68426.72;4986866;28;20073;-90
2021/01/07 10:51:09;;;;;;;2.92;1.95;;;;;;;-145.61;100.00;68426.72;4985699;28;20360;-86
2021/01/07 10:53:53;;;;;;;2.92;2.35;;;;;;;-145.61;100.00;68426.72;4993454;28;20018;-85
2021/01/07 10:56:49;;;;;;;3.25;2.17;;;;;;;-145.61;100.00;68426.72;4989420;28;20127;-85
2021/01/07 10:59:52;;;;;;;3.65;2.55;;;;;;;-145.61;100.00;68426.72;4994577;28;20026;-88
2021/01/07 11:02:36;;;;;;;3.13;2.13;;;;;;;-145.61;100.00;68426.72;4983954;28;20490;-90
2021/01/07 11:05:10;;;;;;;2.33;2.10;;;;;;;-145.61;100.00;68426.72;4986211;28;20058;-90
2021/01/07 11:08:14;;;;;;;3.33;2.40;;;;;;;-145.61;100.00;68426.72;4992342;28;20354;-86
2021/01/07 11:10:49;;;;;;;2.63;2.35;;;;;;;-145.61;100.00;68426.72;4992198;28;20050;-88
2021/01/07 11:13:20;;;;;;;3.45;2.30;;;;;;;-145.61;100.00;68426.72;4987517;28;20068;-89
2021/01/07 11:15:46;;;;;;;1.92;1.70;;;;;;;-145.61;100.00;68426.72;4996738;28;20036;-89
2021/01/07 11:18:19;;;;;;;4.25;2.08;;;;;;;-145.61;100.00;68426.72;4994468;28;20030;-89
2021/01/07 11:20:49;;;;;;;2.92;2.08;;;;;;;-145.61;100.00;68426.72;4978229;28;20105;-88
2021/01/07 11:23:17;;;;;;;2.20;1.98;;;;;;;-145.61;100.00;68426.72;4985411;28;20125;-88
2021/01/07 11:25:42;;;;;;;3.03;2.10;;;;;;;-145.61;100.00;68426.72;4991851;28;20033;-86
2021/01/07 11:28:09;;;;;;;2.30;2.10;;;;;;;-145.61;100.00;68426.72;4995306;28;20026;-87
2021/01/07 11:30:36;;;;;;;2.38;2.00;;;;;;;-145.61;100.00;68426.72;4997157;28;20460;-88
2021/01/07 11:33:03;;;;;;;2.25;2.03;;;;;;;-145.61;100.00;68426.72;4992639;28;20065;-90
2021/01/07 11:35:30;;;;;;;3.25;2.30;;;;;;;-145.61;100.00;68426.72;4977043;28;20035;-89
2021/01/07 11:38:00;;;;;;;4.13;2.28;;;;;;;-145.61;100.00;68426.72;4982897;28;20026;-88
2021/01/07 11:40:33;;;;;;;5.55;3.72;;;;;;;-145.61;100.00;68426.72;4996688;28;20034;-87
2021/01/07 11:43:30;;;;;;;2.88;2.00;;;;;;;-145.61;100.00;68426.72;5007731;28;20041;-90